Time;durP1;ratioP1;P1;durP2;ratioP2;P2;SDS_P1;SDS_P2;PMS_P1;PMS_P2;Temp;Humidity;BMP_temperature;BMP_pressure;BME280_temperature;BME280_humidity;BME280_pressure;Samples;Min_cycle;Max_cycle;Signal;HPM_P1;HPM_P2
2022/08/25 00:01:40;;;;;;;8.40;4.78;;;;;;;24.98;58.43;101522.44;5093165;28;20048;-64
2022/08/25 00:04:09;;;;;;;6.22;4.70;;;;;;;24.77;59.41;101517.84;5093473;28;20057;-64
2022/08/25 00:06:35;;;;;;;6.78;4.82;;;;;;;24.80;59.45;101515.94;5075299;28;20047;-65
2022/08/25 00:09:01;;;;;;;8.35;4.70;;;;;;;24.71;59.60;101521.66;5093189;28;20021;-64
2022/08/25 00:11:30;;;;;;;7.53;4.78;;;;;;;24.59;59.93;101520.31;5093195;28;20515;-65
2022/08/25 00:13:59;;;;;;;7.55;5.00;;;;;;;24.45;60.22;101517.22;5093182;28;20031;-63
2022/08/25 00:16:26;;;;;;;6.43;4.60;;;;;;;24.41;60.41;101511.06;5093174;28;20471;-64
2022/08/25 00:18:56;;;;;;;8.45;4.50;;;;;;;24.50;60.19;101528.75;5092965;28;20428;-65
2022/08/25 00:21:23;;;;;;;6.32;4.60;;;;;;;24.36;60.71;101514.81;5093171;28;20423;-65
2022/08/25 00:23:49;;;;;;;8.75;5.00;;;;;;;24.33;60.54;101509.53;5092837;28;20504;-65
2022/08/25 00:26:15;;;;;;;7.22;4.80;;;;;;;24.39;60.20;101517.44;5093121;28;20077;-64
2022/08/25 00:28:42;;;;;;;8.82;4.95;;;;;;;24.34;60.39;101514.88;5093092;28;20027;-66
2022/08/25 00:31:18;;;;;;;5.78;4.70;;;;;;;24.29;60.39;101516.88;5092916;28;20031;-65
2022/08/25 00:33:45;;;;;;;8.13;5.03;;;;;;;24.26;60.67;101514.25;5093028;28;20064;-63
2022/08/25 00:36:11;;;;;;;7.45;4.90;;;;;;;24.20;61.05;101517.19;5093071;28;20492;-65
2022/08/25 00:38:41;;;;;;;8.52;5.40;;;;;;;24.04;61.54;101519.53;5093107;28;20030;-65
2022/08/25 00:41:10;;;;;;;8.48;5.50;;;;;;;23.90;61.74;101513.75;5093025;28;20028;-65
2022/08/25 00:43:44;;;;;;;9.07;5.28;;;;;;;23.84;62.10;101522.91;5092767;28;20084;-65
2022/08/25 00:46:17;;;;;;;8.20;5.40;;;;;;;23.80;62.32;101523.94;5093240;28;20041;-64
2022/08/25 00:48:44;;;;;;;5.45;4.95;;;;;;;23.85;62.13;101518.38;5093082;28;20039;-64
2022/08/25 00:51:15;;;;;;;9.40;4.85;;;;;;;23.87;61.86;101522.81;5093077;28;20036;-65
2022/08/25 00:53:42;;;;;;;7.80;5.53;;;;;;;23.82;62.42;101513.13;5092744;28;20031;-65
2022/08/25 00:56:09;;;;;;;7.32;5.55;;;;;;;23.84;61.37;101512.09;5095378;28;20078;-64
2022/08/25 00:58:36;;;;;;;6.65;5.78;;;;;;;23.93;61.51;101516.31;5096704;28;20039;-65
2022/08/25 01:01:01;;;;;;;8.60;5.57;;;;;;;23.78;61.95;101523.13;5096366;28;20055;-65
2022/08/25 01:03:29;;;;;;;7.82;5.78;;;;;;;23.87;61.36;101522.81;5097123;28;20039;-64
2022/08/25 01:05:55;;;;;;;7.88;5.28;;;;;;;23.93;61.08;101519.00;5096963;28;20358;-64
2022/08/25 01:08:26;;;;;;;7.30;5.55;;;;;;;23.83;61.54;101514.88;5096750;28;20036;-65
2022/08/25 01:10:52;;;;;;;11.85;6.53;;;;;;;23.90;61.78;101513.75;5096432;28;20024;-64
2022/08/25 01:13:25;;;;;;;8.45;6.03;;;;;;;23.89;61.65;101515.53;5096984;28;20032;-65
2022/08/25 01:15:55;;;;;;;6.78;6.13;;;;;;;23.68;61.78;101508.16;5096485;28;20028;-65
2022/08/25 01:18:22;;;;;;;10.50;6.25;;;;;;;23.73;61.83;101511.59;5096547;28;20024;-64
2022/08/25 01:20:58;;;;;;;8.57;6.28;;;;;;;23.79;61.32;101519.50;5096514;28;20511;-64
2022/08/25 01:23:25;;;;;;;9.40;6.95;;;;;;;23.78;60.80;101517.72;5096043;28;20021;-65
2022/08/25 01:26:00;;;;;;;8.75;6.63;;;;;;;23.82;60.81;101514.00;5096605;28;20031;-64
2022/08/25 01:28:26;;;;;;;9.55;6.50;;;;;;;23.78;60.99;101520.44;5096346;28;20027;-65
2022/08/25 01:30:52;;;;;;;9.85;6.60;;;;;;;23.76;60.92;101524.97;5096229;28;20385;-65
2022/08/25 01:33:18;;;;;;;9.77;6.18;;;;;;;23.66;60.50;101512.72;5096143;28;20016;-65
2022/08/25 01:35:44;;;;;;;9.80;6.75;;;;;;;23.69;60.00;101512.63;5096207;28;20078;-63
2022/08/25 01:38:10;;;;;;;9.80;6.70;;;;;;;23.74;60.27;101518.75;5096045;28;20473;-65
2022/08/25 01:40:38;;;;;;;7.40;6.30;;;;;;;23.62;60.63;101519.13;5096029;28;20025;-65
2022/08/25 01:43:20;;;;;;;8.48;6.18;;;;;;;23.47;60.69;101525.91;5096322;28;20032;-65
2022/08/25 01:45:47;;;;;;;9.77;6.32;;;;;;;23.47;60.43;101517.81;5096162;28;20024;-63
2022/08/25 01:48:14;;;;;;;10.93;6.65;;;;;;;23.40;60.97;101519.81;5096264;28;20020;-65
2022/08/25 01:50:42;;;;;;;9.82;6.80;;;;;;;23.45;60.42;101516.97;5095696;28;20477;-65
2022/08/25 01:53:22;;;;;;;13.52;7.43;;;;;;;23.47;60.31;101525.91;5095502;28;20074;-64
2022/08/25 01:55:50;;;;;;;8.23;7.18;;;;;;;23.53;59.96;101522.13;5096012;28;20024;-64
2022/08/25 01:58:19;;;;;;;11.07;7.25;;;;;;;23.53;59.34;101522.13;5095686;28;20495;-65
2022/08/25 02:00:47;;;;;;;12.95;8.00;;;;;;;23.47;59.93;101521.41;5095718;28;20477;-64
2022/08/25 02:03:13;;;;;;;12.18;7.35;;;;;;;23.52;59.09;101514.97;5095389;28;20055;-64
2022/08/25 02:05:38;;;;;;;10.80;7.57;;;;;;;23.48;59.21;101516.88;5060593;28;20385;-66
2022/08/25 02:08:03;;;;;;;9.10;7.18;;;;;;;23.48;59.44;101516.88;5095264;28;20067;-66
2022/08/25 02:10:29;;;;;;;10.10;7.10;;;;;;;23.44;59.08;101513.41;5095425;28;20417;-64
2022/08/25 02:12:54;;;;;;;12.70;7.38;;;;;;;23.35;59.54;101511.00;5095499;28;20032;-64
2022/08/25 02:15:20;;;;;;;9.40;7.13;;;;;;;23.26;59.15;101516.69;5095411;28;20036;-65
2022/08/25 02:17:46;;;;;;;14.77;7.28;;;;;;;23.23;59.54;101509.56;5095305;28;20031;-65
2022/08/25 02:20:11;;;;;;;14.15;7.32;;;;;;;23.05;59.38;101511.97;5095268;28;20124;-66
2022/08/25 02:22:36;;;;;;;12.05;7.40;;;;;;;22.99;59.38;101516.56;5095295;28;20035;-65
2022/08/25 02:25:03;;;;;;;11.00;7.13;;;;;;;22.94;59.30;101512.25;5095005;28;20457;-66
2022/08/25 02:27:28;;;;;;;10.52;7.35;;;;;;;22.83;60.05;101517.06;5095133;28;20068;-65
2022/08/25 02:29:53;;;;;;;9.48;6.88;;;;;;;22.93;59.71;101516.78;5095073;28;20405;-64
2022/08/25 02:32:19;;;;;;;8.35;7.10;;;;;;;22.96;59.25;101516.69;5094920;28;20121;-64
2022/08/25 02:34:44;;;;;;;10.57;7.10;;;;;;;23.00;59.09;101514.78;5095117;28;20027;-65
2022/08/25 02:37:09;;;;;;;11.52;7.32;;;;;;;22.93;58.63;101511.38;5094925;28;20077;-65
2022/08/25 02:39:35;;;;;;;13.00;7.72;;;;;;;22.75;59.47;101509.22;5095053;28;20035;-66
2022/08/25 02:42:01;;;;;;;11.35;7.30;;;;;;;22.66;59.67;101512.19;5095069;28;20024;-65
2022/08/25 02:44:27;;;;;;;14.38;7.70;;;;;;;22.65;59.32;101510.38;5094858;28;20031;-65
2022/08/25 02:46:52;;;;;;;9.85;7.13;;;;;;;22.64;60.21;101505.94;5094823;28;20206;-64
2022/08/25 02:49:17;;;;;;;15.20;7.50;;;;;;;22.59;60.35;101500.69;5095084;28;20499;-66
2022/08/25 02:51:43;;;;;;;9.05;7.70;;;;;;;22.48;59.75;101505.47;5094636;28;20032;-63
2022/08/25 02:54:08;;;;;;;9.68;7.72;;;;;;;22.50;59.87;101509.03;5094433;28;20052;-65
2022/08/25 02:56:33;;;;;;;10.85;7.47;;;;;;;22.47;60.55;101503.72;5094778;28;20062;-65
2022/08/25 02:58:59;;;;;;;14.38;7.88;;;;;;;22.44;60.01;101493.03;5094600;28;20201;-65
2022/08/25 03:01:25;;;;;;;12.82;8.00;;;;;;;22.41;60.01;101502.09;5094483;28;20075;-63
2022/08/25 03:03:51;;;;;;;14.95;7.70;;;;;;;;;;5094829;28;20476;-64
2022/08/25 03:06:19;;;;;;;9.82;7.10;;;;;;;22.61;59.74;101484.47;5094474;28;20032;-64
2022/08/25 03:08:44;;;;;;;12.95;7.75;;;;;;;22.60;59.35;101494.34;5094478;28;20081;-65
2022/08/25 03:11:10;;;;;;;12.20;8.27;;;;;;;22.62;59.13;101497.91;5094203;28;20040;-63
2022/08/25 03:13:36;;;;;;;15.23;8.05;;;;;;;22.66;58.91;101488.81;5094347;28;20024;-64
2022/08/25 03:16:04;;;;;;;13.55;7.25;;;;;;;22.61;59.00;101492.53;5094164;28;20410;-64
2022/08/25 03:18:30;;;;;;;14.32;7.40;;;;;;;22.68;58.70;101488.75;5093649;28;20115;-63
2022/08/25 03:20:55;;;;;;;9.15;7.40;;;;;;;22.67;58.60;101487.00;5075897;28;20107;-65
2022/08/25 03:23:21;;;;;;;13.15;7.47;;;;;;;22.66;58.04;101485.25;5094066;28;20028;-63
2022/08/25 03:28:31;;;;;;;11.75;7.30;;;;;;;22.63;58.33;101478.13;5094246;28;20047;-66
2022/08/25 03:30:59;;;;;;;9.27;6.88;;;;;;;22.62;58.09;101473.66;5093877;28;20127;-64
2022/08/25 03:33:26;;;;;;;9.45;7.38;;;;;;;22.55;58.62;101474.75;5094044;28;20052;-64
2022/08/25 03:35:51;;;;;;;12.27;7.97;;;;;;;22.50;58.60;101476.69;5094016;28;20024;-65
2022/08/25 03:38:16;;;;;;;11.82;7.60;;;;;;;22.55;58.37;101481.97;5093837;28;20438;-64
2022/08/25 03:40:42;;;;;;;12.25;8.02;;;;;;;22.51;58.47;101470.38;5093787;28;20024;-66
2022/08/25 03:43:07;;;;;;;12.82;7.85;;;;;;;22.47;58.29;101479.47;5093759;28;20043;-65
2022/08/25 03:45:33;;;;;;;10.95;7.82;;;;;;;22.43;58.21;101475.97;5093689;28;20534;-64
2022/08/25 03:47:58;;;;;;;12.18;7.72;;;;;;;22.43;58.43;101472.41;5093601;28;20028;-64
2022/08/25 03:50:24;;;;;;;12.38;7.75;;;;;;;22.38;58.52;101463.59;5093800;28;20544;-64
2022/08/25 03:52:54;;;;;;;10.73;7.72;;;;;;;22.36;58.55;101465.44;5093321;28;20039;-67
2022/08/25 03:55:21;;;;;;;13.43;7.43;;;;;;;22.32;58.06;101464.66;5093520;28;20032;-64
2022/08/25 03:57:47;;;;;;;11.80;8.10;;;;;;;22.30;57.89;101466.50;5093665;28;20024;-66
2022/08/25 04:00:12;;;;;;;12.05;7.57;;;;;;;22.29;58.05;101462.03;5093578;28;20028;-66
2022/08/25 04:02:39;;;;;;;11.43;7.93;;;;;;;22.25;57.61;101463.94;5093255;28;20040;-65
2022/08/25 04:05:06;;;;;;;11.85;7.70;;;;;;;22.26;58.00;101456.72;5093213;28;20381;-65
2022/08/25 04:07:31;;;;;;;10.93;7.63;;;;;;;22.24;57.88;101451.41;5093436;28;20098;-65
2022/08/25 04:09:56;;;;;;;13.43;7.95;;;;;;;22.18;57.99;101445.28;5093185;28;20028;-66
2022/08/25 04:12:23;;;;;;;13.98;7.97;;;;;;;22.21;57.99;101448.78;5092842;28;20032;-65
2022/08/25 04:14:48;;;;;;;10.40;7.50;;;;;;;22.23;57.64;101441.56;5093609;28;20032;-66
2022/08/25 04:17:14;;;;;;;12.05;7.22;;;;;;;22.16;57.46;101437.25;5093429;28;20111;-65
2022/08/25 04:19:39;;;;;;;14.55;7.40;;;;;;;22.11;57.28;101452.63;5093279;28;20051;-65
2022/08/25 04:22:05;;;;;;;10.25;6.80;;;;;;;22.12;57.16;101445.44;5093099;28;20074;-65
2022/08/25 04:24:30;;;;;;;12.20;6.90;;;;;;;22.13;57.44;101458.00;5092886;28;20032;-64
2022/08/25 04:26:56;;;;;;;12.13;7.25;;;;;;;22.10;56.98;101450.88;5092956;28;20107;-64
2022/08/25 04:29:22;;;;;;;10.20;7.20;;;;;;;21.89;57.48;101460.41;5074717;28;20085;-66
2022/08/25 04:31:49;;;;;;;10.95;7.07;;;;;;;21.81;57.13;101453.47;5093039;28;20070;-64
2022/08/25 04:34:16;;;;;;;10.13;7.30;;;;;;;21.68;58.08;101450.19;5092993;28;20069;-66
2022/08/25 04:36:41;;;;;;;12.52;6.70;;;;;;;21.64;57.95;101451.19;5092937;28;20020;-63
2022/08/25 04:39:06;;;;;;;12.10;7.10;;;;;;;21.61;58.29;101445.88;5092905;28;20161;-66
2022/08/25 04:41:33;;;;;;;11.43;7.10;;;;;;;21.41;59.54;101436.53;5092785;28;20035;-65
2022/08/25 04:43:59;;;;;;;9.43;7.13;;;;;;;21.41;58.47;101441.00;5093181;28;20024;-66
2022/08/25 04:46:30;;;;;;;11.40;6.72;;;;;;;21.45;58.18;101430.13;5092895;28;20032;-65
2022/08/25 04:48:57;;;;;;;12.13;6.85;;;;;;;21.59;57.95;101432.50;5092712;28;20461;-64
2022/08/25 04:51:39;;;;;;;11.00;6.47;;;;;;;21.59;58.02;101434.31;5092901;28;20032;-65
2022/08/25 04:54:07;;;;;;;15.38;6.75;;;;;;;21.65;57.23;101431.44;5092865;28;20108;-64
2022/08/25 04:56:33;;;;;;;10.20;6.40;;;;;;;21.61;57.02;101436.00;5092772;28;20465;-65
2022/08/25 04:59:11;;;;;;;8.18;6.72;;;;;;;21.62;58.15;101436.88;5093015;28;20024;-65
2022/08/25 05:01:38;;;;;;;10.25;6.65;;;;;;;21.68;58.31;101434.06;5092467;28;20558;-65
2022/08/25 05:04:06;;;;;;;14.07;7.00;;;;;;;21.73;57.13;101435.69;5092844;28;20381;-64
2022/08/25 05:06:33;;;;;;;11.35;6.32;;;;;;;21.78;56.25;101426.63;5092477;28;20023;-65
2022/08/25 05:08:58;;;;;;;19.20;11.20;;;;;;;21.78;56.28;101429.31;5092741;28;20028;-64
2022/08/25 05:11:25;;;;;;;15.70;8.40;;;;;;;21.80;56.21;101436.44;5092849;28;20028;-65
2022/08/25 05:13:52;;;;;;;12.73;7.03;;;;;;;21.79;55.71;101444.53;5092571;28;20032;-66
2022/08/25 05:16:19;;;;;;;10.38;6.45;;;;;;;21.79;55.96;101442.72;5092787;28;20028;-65
2022/08/25 05:18:45;;;;;;;12.10;6.35;;;;;;;21.88;55.53;101452.34;5092538;28;20024;-64
2022/08/25 05:21:14;;;;;;;13.50;6.90;;;;;;;21.96;56.17;101459.28;5092527;28;20043;-65
2022/08/25 05:23:40;;;;;;;10.18;5.78;;;;;;;22.07;54.54;101460.84;5092282;28;20432;-64
2022/08/25 05:26:13;;;;;;;9.50;5.93;;;;;;;22.16;54.81;101460.63;5092584;28;20044;-64
2022/08/25 05:28:40;;;;;;;11.93;6.05;;;;;;;22.28;53.93;101462.97;5092570;28;20030;-65
2022/08/25 05:31:07;;;;;;;8.57;6.03;;;;;;;22.34;53.38;101465.47;5092308;28;20055;-64
2022/08/25 05:33:34;;;;;;;12.27;6.20;;;;;;;22.37;53.28;101476.16;5092420;28;20025;-65
2022/08/25 05:36:00;;;;;;;10.13;6.03;;;;;;;22.43;54.35;101472.41;5092413;28;20485;-64
2022/08/25 05:38:26;;;;;;;11.40;5.90;;;;;;;22.46;54.09;101475.03;5092519;28;20111;-64
2022/08/25 05:40:56;;;;;;;12.00;6.10;;;;;;;22.46;53.85;101472.34;5092527;28;20052;-63
2022/08/25 05:43:21;;;;;;;17.30;6.75;;;;;;;22.55;52.55;101468.50;5077808;28;20432;-64
2022/08/25 05:45:46;;;;;;;10.70;6.20;;;;;;;22.70;52.20;101476.13;5096052;28;20020;-65
2022/08/25 05:48:12;;;;;;;9.65;5.72;;;;;;;22.80;53.05;101477.63;5095721;28;20481;-65
2022/08/25 05:50:38;;;;;;;8.27;6.18;;;;;;;22.92;52.05;101479.09;5095929;28;20051;-65
2022/08/25 05:53:03;;;;;;;10.38;5.90;;;;;;;23.06;51.02;101476.84;5095600;28;20078;-63
2022/08/25 05:55:29;;;;;;;14.18;5.88;;;;;;;23.20;51.08;101480.00;5095789;28;20024;-64
2022/08/25 05:57:54;;;;;;;10.77;5.78;;;;;;;23.30;50.43;101475.22;5095650;28;20020;-65
2022/08/25 06:00:19;;;;;;;9.90;5.60;;;;;;;23.30;50.69;101477.00;5096059;28;20115;-65
2022/08/25 06:02:48;;;;;;;11.82;5.88;;;;;;;23.39;50.33;101483.00;5095221;28;20056;-64
2022/08/25 06:05:19;;;;;;;10.15;5.20;;;;;;;23.57;50.81;101481.50;5095552;28;20036;-65
2022/08/25 06:07:46;;;;;;;14.45;5.38;;;;;;;23.73;49.97;101487.31;5095631;28;20362;-65
2022/08/25 06:10:12;;;;;;;15.75;5.75;;;;;;;23.86;50.06;101480.56;5095522;28;20057;-65
2022/08/25 06:12:40;;;;;;;10.35;5.40;;;;;;;24.00;49.14;101485.47;5095523;28;20028;-65
2022/08/25 06:15:06;;;;;;;8.95;5.28;;;;;;;24.14;49.20;101475.06;5095313;28;20103;-64
2022/08/25 06:17:31;;;;;;;8.50;5.50;;;;;;;24.21;49.07;101483.84;5077265;28;20020;-65
2022/08/25 06:19:57;;;;;;;10.85;5.30;;;;;;;24.39;48.10;101485.91;5095402;28;20107;-65
2022/08/25 06:22:24;;;;;;;9.52;5.38;;;;;;;24.51;48.70;101476.47;5077215;28;20504;-63
2022/08/25 06:24:49;;;;;;;12.25;5.57;;;;;;;24.57;48.28;101476.22;5095124;28;20031;-66
2022/08/25 06:27:15;;;;;;;10.80;4.97;;;;;;;24.76;48.69;101481.84;5094968;28;20412;-64
2022/08/25 06:29:40;;;;;;;8.70;5.10;;;;;;;24.87;48.40;101478.72;5094985;28;20381;-64
2022/08/25 06:32:06;;;;;;;9.02;5.10;;;;;;;24.95;47.89;101485.59;5094705;28;20052;-65
2022/08/25 06:34:31;;;;;;;8.43;5.03;;;;;;;25.06;48.16;101478.88;5094899;28;20032;-65
2022/08/25 06:36:57;;;;;;;7.63;5.10;;;;;;;25.15;46.02;101475.84;5094716;28;20028;-63
2022/08/25 06:39:23;;;;;;;8.57;5.10;;;;;;;25.29;47.13;101478.88;5094831;28;20044;-66
2022/08/25 06:41:53;;;;;;;11.18;4.82;;;;;;;25.43;47.08;101475.59;5094547;28;20528;-65
2022/08/25 06:44:19;;;;;;;8.77;5.30;;;;;;;25.54;46.32;101488.69;5094603;28;20133;-65
2022/08/25 06:46:44;;;;;;;9.02;5.22;;;;;;;25.71;45.58;101484.34;5094520;28;20056;-64
2022/08/25 06:49:10;;;;;;;7.93;5.10;;;;;;;25.82;45.62;101481.19;5094504;28;20063;-65
2022/08/25 06:51:35;;;;;;;8.70;4.78;;;;;;;25.95;45.85;101481.53;5094655;28;20028;-65
2022/08/25 06:54:01;;;;;;;12.52;5.38;;;;;;;26.10;45.35;101483.59;5094228;28;20020;-66
2022/08/25 06:56:26;;;;;;;6.75;4.78;;;;;;;26.19;44.58;101479.59;5094569;28;20039;-63
2022/08/25 06:58:52;;;;;;;9.05;4.90;;;;;;;26.31;44.18;101478.19;5094760;28;20485;-64
2022/08/25 07:01:22;;;;;;;10.15;4.90;;;;;;;26.52;43.85;101479.97;5094035;28;20048;-65
2022/08/25 07:03:49;;;;;;;10.10;5.05;;;;;;;26.69;42.95;101471.03;5094453;28;20089;-64
2022/08/25 07:06:17;;;;;;;10.35;5.30;;;;;;;26.83;41.83;101475.81;5094301;28;20484;-65
2022/08/25 07:08:43;;;;;;;12.27;5.00;;;;;;;26.95;41.75;101475.25;5094394;28;20024;-65
2022/08/25 07:11:09;;;;;;;7.80;5.00;;;;;;;27.14;41.80;101468.00;5094226;28;20485;-64
2022/08/25 07:13:36;;;;;;;11.63;5.00;;;;;;;27.32;41.18;101466.22;5094260;28;20493;-65
2022/08/25 07:16:04;;;;;;;12.68;4.85;;;;;;;27.46;41.13;101469.13;5076092;28;20411;-64
2022/08/25 07:18:29;;;;;;;10.68;4.75;;;;;;;27.58;40.73;101464.94;5094205;28;20495;-65
2022/08/25 07:20:56;;;;;;;10.73;4.80;;;;;;;27.58;40.98;101467.66;5094344;28;20111;-64
2022/08/25 07:23:22;;;;;;;13.00;4.63;;;;;;;27.67;39.35;101469.03;5075854;28;20035;-65
2022/08/25 07:25:48;;;;;;;12.45;4.68;;;;;;;27.63;39.75;101459.28;5094143;28;20142;-65
2022/08/25 07:28:15;;;;;;;10.02;4.20;;;;;;;27.77;39.88;101459.47;5093694;28;20050;-65
2022/08/25 07:30:41;;;;;;;8.10;4.28;;;;;;;27.73;38.72;101467.84;5075809;28;20599;-65
2022/08/25 07:33:06;;;;;;;8.00;3.97;;;;;;;27.79;38.92;101462.09;5093935;28;20024;-66
2022/08/25 07:35:32;;;;;;;11.23;4.05;;;;;;;27.78;39.84;101468.50;5094165;28;20028;-65
2022/08/25 07:37:58;;;;;;;7.88;4.15;;;;;;;27.91;39.14;101462.34;5093798;28;20075;-66
2022/08/25 07:40:30;;;;;;;6.30;4.13;;;;;;;28.05;38.81;101458.94;5093823;28;20112;-65
2022/08/25 07:42:59;;;;;;;8.68;3.90;;;;;;;28.22;38.59;101449.84;5093672;28;20038;-65
2022/08/25 07:45:29;;;;;;;8.32;4.25;;;;;;;28.43;38.52;101448.72;5093570;28;20016;-64
2022/08/25 07:48:05;;;;;;;7.40;3.67;;;;;;;28.70;38.07;101449.06;5093788;28;20469;-65
2022/08/25 07:50:32;;;;;;;8.90;3.95;;;;;;;28.98;36.22;101449.38;5093484;28;20050;-66
2022/08/25 07:52:58;;;;;;;9.63;3.75;;;;;;;29.16;36.17;101448.31;5093342;28;20020;-65
2022/08/25 07:55:25;;;;;;;10.90;3.60;;;;;;;29.26;35.35;101449.56;5093290;28;20112;-65
2022/08/25 07:57:52;;;;;;;8.43;3.80;;;;;;;29.42;35.64;101447.72;5093450;28;20484;-65
2022/08/25 08:00:18;;;;;;;7.90;3.58;;;;;;;29.56;34.54;101444.19;5093532;28;20073;-66
2022/08/25 08:02:43;;;;;;;12.00;3.70;;;;;;;29.62;34.04;101443.81;5093070;28;20052;-64
2022/08/25 08:05:11;;;;;;;10.38;3.60;;;;;;;29.67;35.46;101443.53;5093205;28;20423;-65
2022/08/25 08:07:36;;;;;;;6.35;3.50;;;;;;;29.81;34.21;101448.19;5093207;28;20024;-66
2022/08/25 08:10:05;;;;;;;9.43;3.85;;;;;;;29.85;34.48;101447.91;5093072;28;20366;-64
2022/08/25 08:12:30;;;;;;;9.38;3.72;;;;;;;29.71;34.71;101438.78;5093388;28;20553;-65
2022/08/25 08:14:57;;;;;;;10.20;3.60;;;;;;;30.06;35.57;101439.38;5093284;28;20115;-65
2022/08/25 08:17:22;;;;;;;6.88;3.50;;;;;;;30.16;33.51;101433.31;5093089;28;20436;-65
2022/08/25 08:19:48;;;;;;;9.55;3.75;;;;;;;30.39;33.90;101431.84;5093021;28;20024;-65
2022/08/25 08:22:14;;;;;;;9.23;3.80;;;;;;;30.62;33.33;101432.22;5093197;28;20028;-65
2022/08/25 08:24:41;;;;;;;9.00;3.58;;;;;;;30.89;33.01;101437.81;5092772;28;20039;-65
2022/08/25 08:27:07;;;;;;;10.00;3.65;;;;;;;30.86;33.28;101438.88;5093350;28;20020;-66
2022/08/25 08:29:34;;;;;;;8.60;3.72;;;;;;;31.12;32.46;101442.63;5092930;28;20028;-65
2022/08/25 08:32:00;;;;;;;7.10;3.67;;;;;;;31.32;32.24;101445.94;5093445;28;20028;-65
2022/08/25 08:34:25;;;;;;;12.00;3.50;;;;;;;31.46;32.58;101432.19;5093202;28;20016;-64
2022/08/25 08:36:51;;;;;;;9.93;3.70;;;;;;;31.40;32.79;101440.81;5092988;28;20495;-65
2022/08/25 08:39:16;;;;;;;9.73;3.85;;;;;;;31.62;33.00;101434.78;5092702;28;20098;-66
2022/08/25 08:44:46;;;;;;;5.60;3.50;;;;;;;32.35;31.42;101431.50;5093371;28;20047;-66
2022/08/25 08:47:18;;;;;;;6.05;3.22;;;;;;;32.51;31.98;101429.47;5092923;28;20107;-66
2022/08/25 08:50:02;;;;;;;10.43;3.50;;;;;;;32.76;31.48;101417.59;5092703;28;20027;-64
2022/08/25 08:52:37;;;;;;;9.93;3.60;;;;;;;32.97;31.19;101419.75;5092672;28;20036;-66
2022/08/25 08:55:08;;;;;;;10.35;3.50;;;;;;;32.97;30.39;101423.34;5092817;28;20024;-65
2022/08/25 08:57:38;;;;;;;;;;;;;;;33.42;30.28;101420.88;5093335;28;20028;-66
2022/08/25 09:00:05;;;;;;;7.18;3.13;;;;;;;33.68;29.81;101420.78;5092978;28;20269;-64
2022/08/25 09:02:38;;;;;;;8.82;3.50;;;;;;;33.90;28.29;101418.97;5092676;28;20074;-65
2022/08/25 09:05:08;;;;;;;7.60;3.63;;;;;;;33.96;28.28;101417.69;5092865;28;20024;-64
2022/08/25 09:07:55;;;;;;;10.30;3.35;;;;;;;34.22;28.88;101420.19;5092825;28;20017;-66
2022/08/25 09:10:24;;;;;;;7.68;3.25;;;;;;;34.44;28.29;101422.97;5092911;28;20024;-65
2022/08/25 09:12:57;;;;;;;7.60;3.40;;;;;;;34.54;27.91;101424.00;5092459;28;20441;-66
2022/08/25 09:16:53;;;;;;;6.93;3.22;;;;;;;34.48;28.26;101416.28;5092765;28;20106;-65
2022/08/25 09:18:50;;;;;;;6.05;3.20;;;;;;;34.90;26.69;101419.22;5095950;28;20032;-65
2022/08/25 09:21:32;;;;;;;9.30;3.30;;;;;;;35.07;27.77;101421.47;5078562;28;20384;-64
2022/08/25 09:24:14;;;;;;;8.20;3.47;;;;;;;35.01;28.42;101424.72;5096124;28;20169;-65
2022/08/25 09:27:03;;;;;;;8.07;3.40;;;;;;;35.09;27.30;101422.22;5096458;28;20028;-65
2022/08/25 09:29:55;;;;;;;13.48;3.65;;;;;;;35.42;27.62;101417.63;5096290;28;20032;-65
2022/08/25 09:32:21;;;;;;;5.85;3.55;;;;;;;35.67;26.45;101421.03;5087753;28;20032;-65
2022/08/25 09:34:49;;;;;;;8.05;3.33;;;;;;;35.77;25.54;101414.63;5096205;28;20012;-66
2022/08/25 09:37:15;;;;;;;6.65;3.30;;;;;;;35.94;25.64;101413.16;5096468;28;20040;-67
2022/08/25 09:39:41;;;;;;;13.18;3.45;;;;;;;36.03;25.06;101422.50;5095866;28;20112;-66
2022/08/25 09:42:06;;;;;;;10.20;3.38;;;;;;;36.31;25.05;101413.53;5096110;28;20109;-68
2022/08/25 09:44:40;;;;;;;9.07;3.30;;;;;;;36.51;24.71;101411.78;5096071;28;20036;-65
2022/08/25 09:47:21;;;;;;;9.45;3.08;;;;;;;36.69;24.53;101409.25;5095978;28;20024;-64
2022/08/25 09:49:49;;;;;;;;;;;;;;;36.89;25.32;101407.44;5096674;28;20024;-66
2022/08/25 09:52:17;;;;;;;8.18;3.58;;;;;;;37.05;24.54;101398.66;5095770;28;20277;-65
2022/08/25 09:54:43;;;;;;;7.90;3.38;;;;;;;37.25;24.19;101411.44;5077395;28;20481;-64
2022/08/25 09:57:45;;;;;;;8.05;3.30;;;;;;;37.44;24.92;101390.47;5095752;28;20046;-66
2022/08/25 10:00:17;;;;;;;8.80;3.47;;;;;;;37.25;23.20;101388.50;5094814;28;20115;-65
2022/08/25 10:02:58;;;;;;;8.93;3.03;;;;;;;37.52;22.86;101387.84;5095438;28;20101;-64
2022/08/25 10:05:25;;;;;;;7.90;3.25;;;;;;;37.60;22.82;101382.44;5095563;28;20367;-66
2022/08/25 10:07:57;;;;;;;8.48;3.47;;;;;;;37.67;23.10;101378.09;5095786;28;20047;-66
2022/08/25 10:10:33;;;;;;;9.27;3.17;;;;;;;37.95;22.93;101370.81;5095448;28;20027;-65
2022/08/25 10:13:00;;;;;;;6.70;3.20;;;;;;;38.03;23.04;101365.44;5095066;28;20115;-65
2022/08/25 10:15:30;;;;;;;7.90;3.20;;;;;;;38.07;22.34;101372.41;5095471;28;20434;-65
2022/08/25 10:18:18;;;;;;;7.70;3.20;;;;;;;38.05;22.38;101366.13;5095445;28;20024;-66
2022/08/25 10:21:08;;;;;;;7.57;3.20;;;;;;;37.95;21.75;101362.56;5095352;28;20119;-66
2022/08/25 10:23:39;;;;;;;6.05;3.03;;;;;;;38.05;21.14;101360.63;5095020;28;20028;-66
2022/08/25 10:26:20;;;;;;;9.60;3.08;;;;;;;38.54;21.47;101355.78;5095312;28;20385;-66
2022/08/25 10:29:17;;;;;;;6.90;2.90;;;;;;;38.35;21.14;101358.66;5094963;28;20040;-64
2022/08/25 10:31:50;;;;;;;7.57;3.25;;;;;;;38.34;21.89;101359.69;5095068;28;20035;-64
2022/08/25 10:34:35;;;;;;;9.63;3.00;;;;;;;38.39;21.71;101350.94;5095448;28;20181;-65
2022/08/25 10:37:25;;;;;;;10.95;3.17;;;;;;;37.97;21.32;101349.47;5095350;28;20035;-64
2022/08/25 10:40:07;;;;;;;11.27;3.20;;;;;;;37.80;21.64;101342.78;5095083;28;20036;-66
2022/08/25 10:42:38;;;;;;;7.22;3.20;;;;;;;38.18;22.10;101338.22;5095388;28;20035;-66
2022/08/25 10:48:14;;;;;;;7.40;3.60;;;;;;;38.18;22.27;101329.06;5095111;28;20086;-66
2022/08/25 10:51:26;;;;;;;11.57;3.50;;;;;;;37.96;23.39;101331.16;5094738;28;20024;-66
2022/08/25 10:54:03;;;;;;;8.13;3.30;;;;;;;37.86;22.31;101330.34;5065316;28;20043;-65
2022/08/25 10:56:40;;;;;;;10.45;3.20;;;;;;;37.78;22.77;101331.03;5094581;28;20464;-65
2022/08/25 10:59:28;;;;;;;9.55;3.47;;;;;;;37.52;22.79;101325.28;5094674;28;20101;-65
2022/08/25 11:02:05;;;;;;;10.38;3.40;;;;;;;37.15;22.74;101316.00;5094290;28;20044;-65
2022/08/25 11:04:38;;;;;;;10.38;3.83;;;;;;;36.87;23.17;101318.53;5094617;28;20505;-66
2022/08/25 11:07:24;;;;;;;8.48;3.50;;;;;;;37.09;23.26;101306.44;5094339;28;20035;-66
2022/08/25 11:09:53;;;;;;;8.00;3.78;;;;;;;37.13;23.42;101307.84;5094440;28;20457;-65
2022/08/25 11:12:37;;;;;;;10.10;3.22;;;;;;;37.37;23.08;101307.41;5094436;28;20157;-65
2022/08/25 11:15:10;;;;;;;9.43;3.70;;;;;;;37.46;23.37;101301.03;5094159;28;20032;-65
2022/08/25 11:17:56;;;;;;;11.63;3.80;;;;;;;37.65;23.70;101307.56;5094067;28;20023;-65
2022/08/25 11:20:27;;;;;;;13.13;3.80;;;;;;;37.62;22.35;101300.44;5094155;28;20149;-66
2022/08/25 11:23:01;;;;;;;7.80;3.67;;;;;;;37.84;22.64;101293.69;5094094;28;20538;-66
2022/08/25 11:25:35;;;;;;;14.48;3.90;;;;;;;38.28;21.88;101288.47;5094050;28;20028;-67
2022/08/25 11:28:13;;;;;;;10.00;3.50;;;;;;;38.70;22.25;101282.44;5075712;28;20088;-65
2022/08/25 11:30:39;;;;;;;12.73;3.67;;;;;;;38.89;20.57;101287.84;5094380;28;20020;-65
2022/08/25 11:33:04;;;;;;;10.30;3.50;;;;;;;39.19;20.01;101285.72;5093810;28;20381;-66
2022/08/25 11:35:35;;;;;;;9.57;3.58;;;;;;;39.24;20.30;101286.13;5094107;28;20024;-65
2022/08/25 11:38:31;;;;;;;6.68;3.50;;;;;;;39.36;20.51;101282.09;5093928;28;20034;-65
2022/08/25 11:41:08;;;;;;;10.15;3.40;;;;;;;39.58;19.52;101275.16;5093601;28;20050;-66